Airfield :
LOGIN :

Register | Disclaimer

   EN    FR    IT 

 










Legend :    VFR   Marginal VFR   IFR   Intensive IFR   Very Intensive IFR
Visi :
Ceiling :
>= 8 km
>= 3000ft
5 to 8 km
1000 to 3000 ft
1500m to 5 km
500 to 1000 ft
800 to 1500m
200 to 500 ft
< 800m
< 200 ft
Symbols :   Thunderstorms  Fog  Heavy snow  Heavy precipitations  Wind > 20 kt
SIGMETs :     Misc.  Thunderstorms  Icing  Turbulence  Mountain Waves  Volcanic Ashes







- Airport Elevation : 1197 ft
- IATA code : SPM


ETAD - Spangdahlem Ab

CURRENT METAR :
  • 250656Z AUTO 25006KT 9999 FEW024 OVC036 02/M01 A3016 RMK AO2 SLP217 T00161010 $

EXPIRED METARs :
  • 250556Z AUTO 24007KT 9999 FEW023 SCT029 OVC055 01/M02 A3015 RMK AO2 SLP212 T00051016 10021 21017 56009 $
  • 250456Z AUTO 25005KT 9999 BKN049 M01/M03 A3016 RMK AO2 SLP216 T10071026 $

TAF TAF ETAD
Valid from the 25 at 05:00 until the 26 at 11:00 UTC


250508Z 2505/2611 26006KT 9999 BKN050 620502 QNH3016INS
BECMG 2506/2507 28009KT 8000 BR FEW020 BKN030 620304 QNH3018INS
BECMG 2508/2509 33012G22KT 9999 NSW SCT020 QNH3020INS
BECMG 2515/2516 33012G22KT 9999 BKN020 620202 QNH3024INS
BECMG 2602/2603 34012KT 9999 OVC025 620252 QNH3035INS TX08/2514Z TN00/2505Z
No reported NOTAMs for that airfield.



MET'MAP, your aeronautical weather chart ! - Copyright ORBIFLY December 2007 - Disclaimer

ORBIFLY MET'MAP TEAM :

Programming & Development : Alexandra Zaïnal
Concept & Development : Baudouin d'Aumeries
Co-Development & Prog : Marc-Olivier Méhu
Technical & hardware support : Manuel Goepfert

Contact : metmap@orbifly.com




SOURCES & CREDITS :

   NOAA